createdAt,value
2017-07-12T00:01:04.461Z,50.52
2017-07-12T00:02:13.430Z,50.74
2017-07-12T00:03:22.388Z,50.33
2017-07-12T00:04:31.347Z,50.24
2017-07-12T00:05:40.303Z,50.33
2017-07-12T00:06:49.269Z,50.52
2017-07-12T00:07:58.850Z,50.52
2017-07-12T00:09:07.812Z,50.26
2017-07-12T00:10:16.849Z,50.43
2017-07-12T00:11:25.549Z,50.33
2017-07-12T00:12:34.504Z,50.24
2017-07-12T00:13:43.771Z,50.33
2017-07-12T00:14:52.727Z,50.24
2017-07-12T00:16:01.369Z,50.45
2017-07-12T00:17:10.326Z,50.14
2017-07-12T00:18:18.973Z,50.52
2017-07-12T00:19:28.252Z,50.14
2017-07-12T00:20:37.212Z,50.45
2017-07-12T00:21:46.507Z,50.16
2017-07-12T00:22:56.111Z,50.43
2017-07-12T00:24:05.120Z,50.07
2017-07-12T00:25:14.019Z,50.24
2017-07-12T00:26:23.295Z,50.24
2017-07-12T00:27:32.879Z,50.35
2017-07-12T00:28:41.894Z,50.33
2017-07-12T00:29:50.850Z,50.16
2017-07-12T00:31:00.449Z,50.24
2017-07-12T00:32:09.418Z,50.52
2017-07-12T00:33:18.689Z,50.04
2017-07-12T00:34:27.649Z,50.04
2017-07-12T00:35:36.615Z,50.52
2017-07-12T00:36:45.905Z,50.52
2017-07-12T00:37:55.189Z,50.92
2017-07-12T00:39:04.145Z,50.33
2017-07-12T00:40:13.104Z,50.72
2017-07-12T00:41:21.746Z,50.24
2017-07-12T00:42:30.390Z,50.43
2017-07-12T00:43:39.346Z,50.43
2017-07-12T00:44:48.617Z,50.52
2017-07-12T00:45:57.591Z,50.52
2017-07-12T00:47:06.867Z,50.52
2017-07-12T00:48:15.827Z,50.33
2017-07-12T00:49:25.408Z,50.43
2017-07-12T00:50:34.683Z,50.24
2017-07-12T00:51:43.633Z,50.24
2017-07-12T00:52:52.902Z,50.24
2017-07-12T00:54:02.499Z,50.52
2017-07-12T00:55:11.799Z,50.62
2017-07-12T00:56:21.080Z,50.43
2017-07-12T00:57:30.038Z,50.33
2017-07-12T00:58:39.939Z,50.52
2017-07-12T00:59:48.577Z,50.33
2017-07-12T01:00:57.856Z,50.52
2017-07-12T01:02:07.446Z,50.33
2017-07-12T01:03:16.717Z,50.33
2017-07-12T01:04:25.996Z,50.33
2017-07-12T01:05:34.954Z,50.33
2017-07-12T01:06:43.617Z,50.24
2017-07-12T01:07:52.901Z,50.33
2017-07-12T01:09:01.547Z,50.24
2017-07-12T01:10:11.130Z,50.33
2017-07-12T01:11:20.429Z,50.43
2017-07-12T01:12:29.069Z,50.43
2017-07-12T01:13:38.355Z,50.33
2017-07-12T01:14:47.003Z,50.62
2017-07-12T01:15:56.618Z,50.62
2017-07-12T01:17:05.882Z,50.52
2017-07-12T01:18:15.168Z,50.52
2017-07-12T01:19:24.122Z,50.52
2017-07-12T01:20:33.407Z,50.33
2017-07-12T01:21:42.053Z,50.33
2017-07-12T01:22:51.324Z,50.82
2017-07-12T01:24:00.298Z,50.82
2017-07-12T01:25:09.563Z,50.52
2017-07-12T01:26:18.206Z,50.33
2017-07-12T01:27:27.475Z,50.33
2017-07-12T01:28:36.125Z,50.82
2017-07-12T01:29:45.740Z,50.43
2017-07-12T01:30:55.343Z,50.92
2017-07-12T01:32:04.303Z,50.33
2017-07-12T01:33:13.256Z,50.24
2017-07-12T01:34:22.527Z,50.52
2017-07-12T01:35:31.804Z,50.33
2017-07-12T01:36:40.461Z,50.43
2017-07-12T01:37:49.100Z,50.33
2017-07-12T01:38:58.070Z,50.62
2017-07-12T01:40:07.032Z,50.33
2017-07-12T01:41:16.312Z,50.33
2017-07-12T01:42:25.292Z,50.43
2017-07-12T01:43:34.953Z,50.33
2017-07-12T01:44:43.607Z,50.24
2017-07-12T01:45:52.886Z,50.52
2017-07-12T01:47:01.855Z,50.62
2017-07-12T01:48:11.139Z,50.24
2017-07-12T01:49:21.064Z,50.43
2017-07-12T01:50:29.711Z,50.33
2017-07-12T01:51:39.304Z,50.52
2017-07-12T01:52:48.593Z,50.72
2017-07-12T01:53:57.546Z,50.33
2017-07-12T01:55:06.532Z,50.92
2017-07-12T01:56:15.505Z,50.92
2017-07-12T01:57:24.771Z,50.24
2017-07-12T01:58:33.737Z,50.72
2017-07-12T01:59:43.399Z,50.24
2017-07-12T02:00:52.999Z,50.14
2017-07-12T02:02:02.281Z,50.24
2017-07-12T02:03:11.240Z,50.04
2017-07-12T02:04:19.883Z,50.33
2017-07-12T02:05:29.158Z,50.52
2017-07-12T02:06:38.747Z,50.52
2017-07-12T02:07:48.351Z,50.24
2017-07-12T02:08:57.317Z,50.52
2017-07-12T02:10:05.967Z,50.33
2017-07-12T02:11:14.619Z,50.62
2017-07-12T02:12:23.604Z,50.14
2017-07-12T02:13:32.246Z,50.14
2017-07-12T02:14:42.149Z,50.24
2017-07-12T02:15:51.101Z,50.14
2017-07-12T02:17:00.056Z,50.14
2017-07-12T02:18:09.016Z,50.04
2017-07-12T02:19:18.618Z,50.24
2017-07-12T02:20:27.586Z,50.04
2017-07-12T02:21:37.165Z,50.24
2017-07-12T02:22:46.128Z,50.14
2017-07-12T02:23:55.091Z,50.14
2017-07-12T02:25:03.725Z,50.14
2017-07-12T02:26:12.709Z,50.33
2017-07-12T02:27:21.990Z,50.14
2017-07-12T02:28:31.576Z,50.04
2017-07-12T02:29:40.536Z,50.14
2017-07-12T02:30:49.498Z,50.33
2017-07-12T02:31:58.459Z,50.24
2017-07-12T02:33:07.415Z,50.24
2017-07-12T02:34:16.060Z,50.24
2017-07-12T02:35:25.654Z,50.52
2017-07-12T02:36:34.303Z,50.43
2017-07-12T02:37:43.639Z,50.52
2017-07-12T02:38:53.225Z,50.33
2017-07-12T02:40:02.495Z,50.33
2017-07-12T02:41:11.789Z,50.33
2017-07-12T02:42:20.764Z,50.62
2017-07-12T02:43:29.723Z,50.33
2017-07-12T02:44:39.312Z,50.52
2017-07-12T02:45:48.586Z,50.52
2017-07-12T02:46:57.865Z,50.43
2017-07-12T02:48:06.821Z,50.33
2017-07-12T02:49:15.463Z,50.33
2017-07-12T02:50:24.433Z,50.43
2017-07-12T02:51:33.708Z,50.33
2017-07-12T02:52:42.665Z,50.33
2017-07-12T02:53:52.005Z,50.33
2017-07-12T02:55:00.992Z,50.72
2017-07-12T02:56:11.203Z,50.43
2017-07-12T02:57:19.846Z,50.24
2017-07-12T02:58:28.482Z,50.14
2017-07-12T02:59:37.753Z,50.24
2017-07-12T03:00:47.028Z,50.52
2017-07-12T03:01:56.314Z,50.14
2017-07-12T03:03:05.591Z,50.52
2017-07-12T03:04:14.245Z,50.14
2017-07-12T03:05:24.182Z,50.14
2017-07-12T03:06:33.141Z,50.33
2017-07-12T03:07:42.414Z,50.14
2017-07-12T03:08:51.397Z,50.14
2017-07-12T03:10:00.990Z,50.14
2017-07-12T03:11:10.268Z,50.52
2017-07-12T03:12:19.231Z,50.24
2017-07-12T03:13:28.522Z,50.04
2017-07-12T03:14:37.789Z,50.43
2017-07-12T03:15:46.436Z,50.33
2017-07-12T03:16:55.714Z,50.14
2017-07-12T03:18:04.352Z,50.52
2017-07-12T03:19:13.313Z,50.24
2017-07-12T03:20:22.600Z,50.14
2017-07-12T03:21:31.869Z,50.43
2017-07-12T03:22:40.827Z,50.33
2017-07-12T03:23:49.484Z,50.33
2017-07-12T03:24:58.464Z,50.14
2017-07-12T03:26:07.442Z,50.52
2017-07-12T03:27:16.408Z,50.14
2017-07-12T03:28:25.996Z,50.14
2017-07-12T03:29:34.653Z,50.14
2017-07-12T03:30:43.298Z,49.95
2017-07-12T03:31:51.941Z,50.14
2017-07-12T03:33:00.900Z,50.14
2017-07-12T03:34:10.007Z,49.95
2017-07-12T03:35:19.608Z,49.95
2017-07-12T03:36:29.200Z,50.14
2017-07-12T03:37:38.795Z,50.14
2017-07-12T03:38:47.753Z,49.95
2017-07-12T03:39:56.406Z,50.14
2017-07-12T03:41:05.053Z,49.95
2017-07-12T03:42:14.006Z,50.04
2017-07-12T03:43:22.656Z,50.43
2017-07-12T03:44:31.627Z,50.52
2017-07-12T03:45:40.895Z,50.24
2017-07-12T03:46:50.486Z,50.52
2017-07-12T03:47:59.775Z,50.33
2017-07-12T03:49:08.738Z,50.43
2017-07-12T03:50:18.016Z,50.24
2017-07-12T03:51:26.654Z,50.72
2017-07-12T03:52:35.290Z,50.24
2017-07-12T03:53:44.249Z,50.52
2017-07-12T03:54:52.896Z,50.72
2017-07-12T03:56:02.172Z,50.43
2017-07-12T03:57:11.130Z,50.33
2017-07-12T03:58:19.777Z,50.62
2017-07-12T03:59:28.740Z,50.52
2017-07-12T04:00:37.699Z,50.43
2017-07-12T04:01:46.392Z,50.33
2017-07-12T04:02:55.042Z,50.43
2017-07-12T04:04:03.987Z,50.33
2017-07-12T04:05:13.265Z,50.33
2017-07-12T04:06:22.242Z,50.62
2017-07-12T04:07:30.892Z,50.43
2017-07-12T04:08:39.852Z,50.43
2017-07-12T04:09:49.118Z,50.43
2017-07-12T04:10:58.073Z,50.43
2017-07-12T04:12:06.771Z,50.52
2017-07-12T04:13:15.411Z,50.52
2017-07-12T04:14:24.376Z,50.52
2017-07-12T04:15:33.045Z,50.43
2017-07-12T04:16:42.003Z,50.43
2017-07-12T04:17:50.666Z,50.43
2017-07-12T04:18:59.654Z,50.24
2017-07-12T04:20:08.330Z,50.43
2017-07-12T04:21:17.308Z,50.43
2017-07-12T04:22:25.943Z,50.24
2017-07-12T04:23:34.616Z,50.33
2017-07-12T04:24:43.265Z,50.5
2017-07-12T04:25:52.226Z,50.98
2017-07-12T04:27:01.528Z,51.08
2017-07-12T04:28:10.789Z,50.7
2017-07-12T04:29:19.758Z,50.52
2017-07-12T04:30:28.428Z,50.43
2017-07-12T04:31:37.404Z,50.52
2017-07-12T04:32:46.708Z,50.92
2017-07-12T04:33:55.718Z,51.01
2017-07-12T04:35:04.378Z,51.2
2017-07-12T04:36:13.370Z,51.2
2017-07-12T04:37:22.022Z,50.82
2017-07-12T04:38:30.664Z,51.01
2017-07-12T04:39:39.983Z,50.89
2017-07-12T04:40:48.653Z,50.79
2017-07-12T04:41:57.922Z,51.01
2017-07-12T04:43:06.568Z,50.89
2017-07-12T04:44:15.856Z,50.7
2017-07-12T04:45:24.812Z,51.18
2017-07-12T04:46:34.093Z,51.18
2017-07-12T04:47:43.404Z,51.18
2017-07-12T04:48:52.691Z,51.18
2017-07-12T04:50:01.350Z,51.18
2017-07-12T04:51:10.065Z,51.18
2017-07-12T04:52:19.043Z,51.18
2017-07-12T04:53:28.321Z,50.98
2017-07-12T04:54:37.280Z,51.18
2017-07-12T04:55:46.243Z,51.28
2017-07-12T04:56:54.881Z,50.89
2017-07-12T04:58:04.152Z,50.6
2017-07-12T04:59:13.128Z,50.89
2017-07-12T05:00:22.104Z,50.98
2017-07-12T05:01:31.397Z,50.92
2017-07-12T05:02:40.039Z,50.72
2017-07-12T05:03:48.996Z,50.82
2017-07-12T05:04:58.278Z,51.1
2017-07-12T05:06:07.232Z,50.24
2017-07-12T05:07:16.525Z,50.52
2017-07-12T05:08:26.130Z,50.43
2017-07-12T05:09:35.462Z,50.33
2017-07-12T05:10:44.434Z,50.33
2017-07-12T05:11:53.395Z,50.33
2017-07-12T05:13:02.041Z,50.04
2017-07-12T05:14:11.333Z,50.45
2017-07-12T05:15:20.615Z,50.35
2017-07-12T05:16:29.895Z,50.16
2017-07-12T05:17:38.850Z,50.16
2017-07-12T05:18:47.825Z,50.07
2017-07-12T05:19:56.470Z,49.97
2017-07-12T05:21:05.124Z,50.35
2017-07-12T05:22:14.082Z,50.35
2017-07-12T05:23:22.726Z,50.35
2017-07-12T05:24:32.008Z,50.26
2017-07-12T05:25:40.677Z,49.97
2017-07-12T05:26:50.256Z,49.97
2017-07-12T05:27:59.539Z,49.97
2017-07-12T05:29:09.117Z,49.97
2017-07-12T05:30:17.779Z,50.07
2017-07-12T05:31:26.738Z,50.19
2017-07-12T05:32:35.691Z,50.16
2017-07-12T05:33:44.651Z,49.7
2017-07-12T05:34:53.916Z,49.61
2017-07-12T05:36:02.584Z,49.61
2017-07-12T05:37:11.536Z,49.41
2017-07-12T05:38:21.116Z,49.51
2017-07-12T05:39:30.396Z,49.7
2017-07-12T05:40:39.817Z,49.8
2017-07-12T05:41:49.087Z,49.7
2017-07-12T05:42:58.372Z,49.8
2017-07-12T05:44:07.962Z,49.8
2017-07-12T05:45:16.610Z,49.8
2017-07-12T05:46:25.895Z,49.41
2017-07-12T05:47:35.163Z,49.41
2017-07-12T05:48:44.753Z,49.41
2017-07-12T05:49:53.401Z,49.32
2017-07-12T05:51:02.379Z,49.22
2017-07-12T05:52:11.649Z,49.7
2017-07-12T05:53:20.937Z,49.22
2017-07-12T05:54:30.529Z,49.22
2017-07-12T05:55:39.227Z,49.32
2017-07-12T05:56:48.560Z,49.22
2017-07-12T05:57:57.839Z,49.22
2017-07-12T05:59:06.794Z,49.22
2017-07-12T06:00:16.069Z,49.32
2017-07-12T06:01:25.341Z,49.34
2017-07-12T06:02:33.992Z,49.22
2017-07-12T06:03:42.630Z,49.22
2017-07-12T06:04:51.592Z,49.34
2017-07-12T06:06:00.556Z,49.34
2017-07-12T06:07:09.577Z,49.34
2017-07-12T06:08:18.871Z,49.73
2017-07-12T06:09:27.537Z,49.32
2017-07-12T06:10:36.189Z,49.24
2017-07-12T06:11:45.778Z,49.24
2017-07-12T06:12:55.052Z,49.63
2017-07-12T06:14:04.010Z,49.24
2017-07-12T06:15:13.602Z,49.24
2017-07-12T06:16:22.239Z,49.44
2017-07-12T06:17:31.200Z,49.54
2017-07-12T06:18:40.153Z,49.44
2017-07-12T06:19:49.439Z,48.85
2017-07-12T06:20:58.104Z,49.05
2017-07-12T06:22:07.073Z,49.15
2017-07-12T06:23:15.726Z,49.15
2017-07-12T06:24:24.999Z,48.95
2017-07-12T06:25:34.275Z,49.05
2017-07-12T06:26:43.865Z,48.85
2017-07-12T06:27:52.514Z,49.15
2017-07-12T06:29:02.412Z,49.05
2017-07-12T06:30:11.711Z,49.34
2017-07-12T06:31:21.011Z,49.34
2017-07-12T06:32:30.304Z,49.34
2017-07-12T06:33:39.920Z,49.24
2017-07-12T06:34:49.205Z,49.24
2017-07-12T06:35:57.870Z,48.85
2017-07-12T06:37:06.521Z,49.15
2017-07-12T06:38:15.172Z,49.15
2017-07-12T06:39:24.134Z,49.05
2017-07-12T06:40:33.405Z,49.05
2017-07-12T06:41:43.017Z,49.05
2017-07-12T06:42:51.980Z,49.07
2017-07-12T06:44:00.947Z,48.95
2017-07-12T06:45:09.912Z,49.17
2017-07-12T06:46:18.888Z,48.78
2017-07-12T06:47:27.866Z,48.69
2017-07-12T06:48:37.156Z,48.97
2017-07-12T06:49:46.433Z,48.88
2017-07-12T06:50:55.397Z,48.97
2017-07-12T06:52:04.374Z,48.78
2017-07-12T06:53:13.026Z,48.88
2017-07-12T06:54:21.994Z,48.88
2017-07-12T06:55:31.269Z,48.97
2017-07-12T06:56:40.542Z,48.69
2017-07-12T06:57:50.137Z,48.69
2017-07-12T06:58:59.424Z,48.78
2017-07-12T07:00:08.725Z,48.78
2017-07-12T07:01:17.685Z,48.78
2017-07-12T07:02:26.965Z,49.07
2017-07-12T07:03:35.932Z,48.97
2017-07-12T07:04:45.215Z,49.07
2017-07-12T07:05:54.507Z,49.07
2017-07-12T07:07:04.105Z,49.07
2017-07-12T07:08:12.754Z,49.07
2017-07-12T07:09:21.406Z,49.07
2017-07-12T07:10:30.377Z,48.97
2017-07-12T07:11:39.033Z,49.37
2017-07-12T07:12:48.004Z,49.07
2017-07-12T07:13:56.974Z,49.46
2017-07-12T07:15:06.633Z,49.07
2017-07-12T07:16:15.603Z,49.17
2017-07-12T07:17:24.605Z,49.37
2017-07-12T07:18:33.261Z,49.17
2017-07-12T07:19:42.550Z,49.37
2017-07-12T07:20:51.832Z,48.97
2017-07-12T07:22:00.803Z,49.07
2017-07-12T07:23:09.454Z,48.97
2017-07-12T07:24:18.449Z,49.17
2017-07-12T07:25:27.749Z,49.07
2017-07-12T07:26:36.416Z,49.17
2017-07-12T07:27:45.696Z,49.37
2017-07-12T07:28:54.667Z,49.17
2017-07-12T07:30:03.643Z,49.17
2017-07-12T07:31:12.930Z,49.56
2017-07-12T07:32:21.913Z,49.17
2017-07-12T07:33:31.516Z,49.56
2017-07-12T07:34:40.518Z,49.17
2017-07-12T07:35:49.815Z,49.46
2017-07-12T07:36:58.469Z,49.37
2017-07-12T07:38:07.118Z,49.37
2017-07-12T07:39:16.393Z,49.27
2017-07-12T07:40:25.688Z,49.37
2017-07-12T07:41:34.349Z,49.37
2017-07-12T07:42:43.313Z,49.27
2017-07-12T07:43:51.968Z,49.27
2017-07-12T07:45:00.947Z,49.27
2017-07-12T07:46:10.247Z,49.37
2017-07-12T07:47:18.922Z,49.27
2017-07-12T07:48:28.196Z,49.37
2017-07-12T07:49:37.481Z,49.27
2017-07-12T07:50:46.472Z,49.66
2017-07-12T07:51:55.442Z,49.56
2017-07-12T07:53:04.724Z,49.27
2017-07-12T07:54:13.695Z,49.75
2017-07-12T07:55:23.288Z,49.66
2017-07-12T07:56:31.935Z,49.66
2017-07-12T07:57:40.908Z,49.75
2017-07-12T07:58:49.560Z,49.56
2017-07-12T07:59:58.530Z,49.56
2017-07-12T08:01:07.184Z,49.66
2017-07-12T08:02:16.150Z,49.37
2017-07-12T08:03:24.875Z,49.27
2017-07-12T08:04:34.152Z,49.37
2017-07-12T08:05:42.812Z,49.27
2017-07-12T08:06:52.089Z,49.17
2017-07-12T08:08:01.054Z,49.07
2017-07-12T08:09:09.703Z,49.37
2017-07-12T08:10:18.996Z,49.27
2017-07-12T08:11:27.971Z,49.37
2017-07-12T08:12:36.930Z,49.27
2017-07-12T08:13:46.855Z,49.27
2017-07-12T08:14:56.133Z,49.27
2017-07-12T08:16:05.410Z,49.17
2017-07-12T08:17:14.679Z,49.27
2017-07-12T08:18:24.290Z,49.17
2017-07-12T08:19:33.261Z,49.37
2017-07-12T08:20:42.864Z,49.27
2017-07-12T08:21:51.524Z,49.37
2017-07-12T08:23:00.503Z,49.27
2017-07-12T08:24:09.782Z,49.56
2017-07-12T08:25:18.746Z,49.56
2017-07-12T08:26:28.664Z,49.46
2017-07-12T08:27:38.261Z,49.46
2017-07-12T08:28:47.237Z,49.37
2017-07-12T08:29:56.522Z,49.37
2017-07-12T08:31:05.481Z,49.56
2017-07-12T08:32:14.137Z,49.66
2017-07-12T08:33:22.799Z,49.27
2017-07-12T08:34:31.474Z,49.27
2017-07-12T08:35:40.440Z,49.37
2017-07-12T08:36:50.103Z,49.27
2017-07-12T08:37:59.385Z,49.75
2017-07-12T08:39:08.680Z,49.95
2017-07-12T08:40:17.645Z,49.46
2017-07-12T08:41:26.915Z,49.85
2017-07-12T08:42:36.202Z,49.85
2017-07-12T08:43:45.860Z,49.75
2017-07-12T08:44:54.828Z,49.85
2017-07-12T08:46:03.852Z,49.56
2017-07-12T08:47:13.137Z,49.46
2017-07-12T08:48:22.422Z,49.66
2017-07-12T08:49:31.712Z,49.56
2017-07-12T08:50:40.682Z,50.04
2017-07-12T08:51:49.962Z,50.04
2017-07-12T08:52:58.935Z,50.14
2017-07-12T08:54:07.582Z,50.14
2017-07-12T08:55:17.168Z,50.24
2017-07-12T08:56:25.823Z,50.14
2017-07-12T08:57:35.107Z,49.85
2017-07-12T08:58:43.762Z,49.75
2017-07-12T08:59:52.764Z,49.95
2017-07-12T09:01:01.421Z,49.95
2017-07-12T09:09:34.583Z,50.04
2017-07-12T09:10:43.857Z,50.04
2017-07-12T09:11:53.439Z,50.04
2017-07-12T09:13:02.411Z,50.24
2017-07-12T09:14:11.067Z,50.24
2017-07-12T09:15:20.361Z,50.24
2017-07-12T09:16:29.639Z,50.24
2017-07-12T09:17:38.660Z,50.14
2017-07-12T09:18:47.605Z,50.14
2017-07-12T09:19:56.928Z,49.95
2017-07-12T09:21:06.623Z,50.14
2017-07-12T09:22:15.595Z,50.14
2017-07-12T09:23:24.942Z,49.75
2017-07-12T09:33:58.665Z,50.34
2017-07-12T09:35:07.646Z,50.34
2017-07-12T09:36:16.985Z,50.24
2017-07-12T09:37:25.968Z,50.43
2017-07-12T09:38:35.721Z,50.24
2017-07-12T09:39:45.003Z,50.14
2017-07-12T09:40:53.970Z,50.24
2017-07-12T09:42:03.564Z,50.24
2017-07-12T09:43:12.223Z,50.24
2017-07-12T09:44:21.527Z,50.24
2017-07-12T09:45:30.499Z,50.24
2017-07-12T09:46:39.794Z,50.24
2017-07-12T09:47:48.457Z,50.24
2017-07-12T09:48:57.165Z,50.24
2017-07-12T09:50:06.255Z,50.24
2017-07-12T09:51:14.918Z,50.14
2017-07-12T09:52:24.523Z,50.24
2017-07-12T09:53:34.140Z,50.24
2017-07-12T09:54:43.426Z,50.14
2017-07-12T09:55:52.537Z,49.85
2017-07-12T09:57:01.509Z,49.75
2017-07-12T09:58:10.154Z,49.85
2017-07-12T09:59:19.432Z,49.75
2017-07-12T10:00:28.704Z,49.56
2017-07-12T10:01:37.823Z,49.66
2017-07-12T10:02:47.110Z,49.66
2017-07-12T10:03:56.072Z,49.66
2017-07-12T10:05:05.037Z,49.66
2017-07-12T10:06:14.322Z,49.66
2017-07-12T10:07:23.744Z,49.66
2017-07-12T10:08:33.026Z,49.66
2017-07-12T10:09:42.006Z,49.75
2017-07-12T10:10:51.299Z,49.66
2017-07-12T10:12:00.586Z,49.75
2017-07-12T10:13:09.558Z,49.66
2017-07-12T10:14:18.542Z,49.66
2017-07-12T10:15:27.509Z,49.66
2017-07-12T10:16:36.794Z,49.46
2017-07-12T10:17:45.450Z,49.75
2017-07-12T10:18:54.526Z,49.75
2017-07-12T10:20:04.117Z,49.85
2017-07-12T10:21:13.082Z,49.49
2017-07-12T10:22:22.067Z,49.68
2017-07-12T10:23:31.046Z,49.66
2017-07-12T10:24:40.434Z,49.29
2017-07-12T10:25:49.398Z,49.29
2017-07-12T10:26:58.375Z,49.68
2017-07-12T10:28:07.663Z,49.27
2017-07-12T10:29:16.339Z,49.27
2017-07-12T10:30:25.300Z,49.39
2017-07-12T10:31:34.570Z,49.39
2017-07-12T10:32:43.222Z,49.29
2017-07-12T10:33:52.184Z,49.49
2017-07-12T10:35:01.774Z,49.87
2017-07-12T10:36:11.418Z,49.87
2017-07-12T10:37:20.696Z,49.77
2017-07-12T10:38:29.659Z,49.85
2017-07-12T10:39:38.321Z,49.87
2017-07-12T10:40:47.288Z,49.77
2017-07-12T10:41:56.405Z,49.87
2017-07-12T10:43:05.368Z,49.75
2017-07-12T10:44:15.288Z,49.87
2017-07-12T10:45:23.938Z,49.87
2017-07-12T10:46:32.893Z,49.85
2017-07-12T10:47:42.161Z,49.77
2017-07-12T10:48:50.806Z,49.87
2017-07-12T10:49:59.474Z,49.87
2017-07-12T10:51:08.741Z,49.77
2017-07-12T10:52:18.020Z,49.87
2017-07-12T10:53:26.817Z,49.85
2017-07-12T10:54:36.102Z,49.87
2017-07-12T10:55:45.383Z,49.66
2017-07-12T10:56:54.344Z,49.68
2017-07-12T10:58:03.300Z,49.75
2017-07-12T10:59:13.057Z,49.87
2017-07-12T11:00:21.711Z,49.75
2017-07-12T11:01:31.027Z,49.68
2017-07-12T11:02:40.616Z,49.77
2017-07-12T11:03:49.887Z,49.75
2017-07-12T11:04:59.166Z,49.87
2017-07-12T11:06:08.129Z,49.49
2017-07-12T11:07:17.407Z,49.68
2017-07-12T11:08:27.010Z,49.29
2017-07-12T11:09:35.656Z,49.39
2017-07-12T11:10:44.463Z,49.29
2017-07-12T11:11:54.045Z,49.68
2017-07-12T11:13:03.005Z,49.19
2017-07-12T11:14:11.978Z,49.1
2017-07-12T11:15:20.622Z,49.1
2017-07-12T11:16:29.589Z,49.49
2017-07-12T11:17:38.553Z,49.1
2017-07-12T11:18:48.151Z,48.9
2017-07-12T11:19:57.115Z,49.19
2017-07-12T11:21:06.078Z,49.1
2017-07-12T11:22:15.188Z,48.9
2017-07-12T11:23:23.831Z,48.73
2017-07-12T11:24:32.786Z,48.93
2017-07-12T11:25:41.749Z,49.1
2017-07-12T11:29:23.218Z,48.61
2017-07-12T11:30:32.182Z,48.93
2017-07-12T11:31:41.829Z,48.44
2017-07-12T11:32:50.796Z,49.12
2017-07-12T11:33:59.444Z,48.64
2017-07-12T11:35:09.192Z,48.83
2017-07-12T11:36:18.160Z,48.64
2017-07-12T11:37:26.803Z,48.54
2017-07-12T11:38:35.766Z,48.83
2017-07-12T11:39:44.725Z,49.12
2017-07-12T11:40:53.987Z,48.44
2017-07-12T11:44:35.316Z,49.22
2017-07-12T11:48:16.967Z,49.22
2017-07-12T11:51:58.615Z,49.02
2017-07-12T11:53:07.635Z,48.83
2017-07-12T11:54:16.600Z,48.83
2017-07-12T11:58:00.062Z,49
2017-07-12T11:59:08.721Z,49
2017-07-12T12:00:18.323Z,49.1
2017-07-12T12:01:27.296Z,49.22
2017-07-12T12:02:36.578Z,49.1
2017-07-12T12:03:46.160Z,49
2017-07-12T12:04:55.439Z,49.1
2017-07-12T12:06:04.742Z,49.19
2017-07-12T12:07:14.662Z,49.32
2017-07-12T12:08:24.885Z,49.1
2017-07-12T12:09:33.536Z,49.1
2017-07-12T12:10:43.114Z,49.1
2017-07-12T12:11:52.703Z,49.1
2017-07-12T12:13:01.689Z,49.1
2017-07-12T12:14:10.643Z,49
2017-07-12T12:15:19.964Z,49.19
2017-07-12T12:16:29.024Z,49.02
2017-07-12T12:17:38.302Z,48.73
2017-07-12T12:18:47.265Z,49
2017-07-12T12:19:56.280Z,49.19
2017-07-12T12:21:05.560Z,49.12
2017-07-12T12:22:14.629Z,49.1
2017-07-12T12:23:24.208Z,49.19
2017-07-12T12:24:33.480Z,49.1
2017-07-12T12:25:42.522Z,49.29
2017-07-12T12:26:51.791Z,49.29
2017-07-12T12:28:00.443Z,49.68
2017-07-12T12:29:09.416Z,49.97
2017-07-12T12:30:18.696Z,49.49
2017-07-12T12:31:27.656Z,49.97
2017-07-12T12:32:36.947Z,49.87
2017-07-12T12:33:46.070Z,49.77
2017-07-12T12:34:55.674Z,49.77
2017-07-12T12:36:04.640Z,49.58
2017-07-12T12:37:13.613Z,49.68
2017-07-12T12:38:22.893Z,49.68
2017-07-12T12:39:32.268Z,49.87
2017-07-12T12:40:41.568Z,50.26
2017-07-12T12:41:50.529Z,50.26
2017-07-12T12:42:59.185Z,50.07
2017-07-12T12:44:08.458Z,50.04
2017-07-12T12:45:17.591Z,50.16
2017-07-12T12:46:26.237Z,49.75
2017-07-12T12:47:35.507Z,49.77
2017-07-12T12:48:44.775Z,49.97
2017-07-12T12:49:53.731Z,50.16
2017-07-12T12:51:03.100Z,49.85
2017-07-12T12:52:13.002Z,49.75
2017-07-12T12:53:22.590Z,49.95
2017-07-12T12:54:31.869Z,50.04
2017-07-12T12:55:40.831Z,50.04
2017-07-12T12:56:49.963Z,50.14
2017-07-12T12:57:59.553Z,50.14
2017-07-12T12:59:08.510Z,50.24
2017-07-12T13:00:17.461Z,50.24
2017-07-12T13:01:26.732Z,50.34
2017-07-12T13:02:35.840Z,50.43
2017-07-12T13:03:45.745Z,50.43
2017-07-12T13:04:55.005Z,50.24
2017-07-12T13:06:04.283Z,50.43
2017-07-12T13:07:13.555Z,50.04
2017-07-12T13:08:22.603Z,50.34
2017-07-12T13:09:31.884Z,50.14
2017-07-12T13:10:41.155Z,50.14
2017-07-12T13:11:50.434Z,50.34
2017-07-12T13:12:59.703Z,50.24
2017-07-12T13:14:08.817Z,50.24
2017-07-12T13:15:18.097Z,50.04
2017-07-12T13:16:27.681Z,50.24
2017-07-12T13:17:36.318Z,50.24
2017-07-12T13:18:45.274Z,50.43
2017-07-12T13:19:54.076Z,50.53
2017-07-12T13:21:03.674Z,50.53
2017-07-12T13:22:12.950Z,50.24
2017-07-12T13:23:22.583Z,50.43
2017-07-12T13:24:31.854Z,50.34
2017-07-12T13:25:41.787Z,50.24
2017-07-12T13:26:50.747Z,50.24
2017-07-12T13:28:00.042Z,50.24
2017-07-12T13:29:09.002Z,50.34
2017-07-12T13:30:17.960Z,50.24
2017-07-12T13:31:27.708Z,50.34
2017-07-12T13:32:36.344Z,50.79
2017-07-12T13:33:45.612Z,50.62
2017-07-12T13:34:54.575Z,50.34
2017-07-12T13:36:03.531Z,50.53
2017-07-12T13:37:13.463Z,50.6
2017-07-12T13:38:22.121Z,50.34
2017-07-12T13:39:31.388Z,50.24
2017-07-12T13:40:40.354Z,50.24
2017-07-12T13:41:50.252Z,50.14
2017-07-12T13:42:59.270Z,50.62
2017-07-12T13:44:08.238Z,50.62
2017-07-12T13:45:17.832Z,50.14
2017-07-12T13:46:26.479Z,50.62
2017-07-12T13:47:35.763Z,50.62
2017-07-12T13:48:44.885Z,50.43
2017-07-12T13:49:53.840Z,50.04
2017-07-12T13:51:03.108Z,50.24
2017-07-12T13:52:12.067Z,50.34
2017-07-12T13:53:21.674Z,50.43
2017-07-12T13:54:31.104Z,50.43
2017-07-12T13:55:39.749Z,50.43
2017-07-12T13:56:49.042Z,50.53
2017-07-12T13:57:57.982Z,50.04
2017-07-12T13:59:07.568Z,50.04
2017-07-12T14:00:17.295Z,50.14
2017-07-12T14:01:26.882Z,50.14
2017-07-12T14:02:35.538Z,49.56
2017-07-12T14:03:44.813Z,49.87
2017-07-12T14:04:54.124Z,49.49
2017-07-12T14:06:02.813Z,49.29
2017-07-12T14:07:12.093Z,49.19
2017-07-12T14:08:20.737Z,49
2017-07-12T14:09:30.009Z,49.1
2017-07-12T14:10:38.643Z,49.19
2017-07-12T14:11:47.611Z,48.9
2017-07-12T14:12:56.260Z,48.9
2017-07-12T14:14:04.917Z,48.9
2017-07-12T14:15:14.210Z,48.9
2017-07-12T14:16:24.118Z,49
2017-07-12T14:17:33.541Z,48.71
2017-07-12T14:18:42.839Z,49
2017-07-12T14:19:52.420Z,48.9
2017-07-12T14:21:01.698Z,49.1
2017-07-12T14:22:10.660Z,49.1
2017-07-12T14:23:19.689Z,49.19
2017-07-12T14:24:28.952Z,49.1
2017-07-12T14:25:38.227Z,49.1
2017-07-12T14:26:47.189Z,49.39
2017-07-12T14:27:56.790Z,49.19
2017-07-12T14:29:05.590Z,49.29
2017-07-12T14:30:14.551Z,48.9
2017-07-12T14:31:23.586Z,49.1
2017-07-12T14:32:32.239Z,49.19
2017-07-12T14:33:41.505Z,49.12
2017-07-12T14:34:50.534Z,49.1
2017-07-12T14:35:59.505Z,49.1
2017-07-12T14:37:08.171Z,49.19
2017-07-12T14:38:17.217Z,49.22
2017-07-12T14:39:26.195Z,49.1
2017-07-12T14:40:35.155Z,49.1
2017-07-12T14:41:44.432Z,49.49
2017-07-12T14:42:53.073Z,49.29
2017-07-12T14:44:02.352Z,49.19
2017-07-12T14:45:10.992Z,49.58
2017-07-12T14:46:19.952Z,49.29
2017-07-12T14:47:29.850Z,49.39
2017-07-12T14:48:39.437Z,49.29
2017-07-12T14:49:48.403Z,49.29
2017-07-12T14:50:57.052Z,49.58
2017-07-12T14:52:06.005Z,49.49
2017-07-12T14:53:15.281Z,49.97
2017-07-12T14:54:23.938Z,49.87
2017-07-12T14:55:32.898Z,49.77
2017-07-12T14:56:41.843Z,49.29
2017-07-12T14:57:50.586Z,49.39
2017-07-12T14:58:59.543Z,49.1
2017-07-12T15:00:08.501Z,49.19
2017-07-12T15:01:17.140Z,49.19
2017-07-12T15:02:26.106Z,49.39
2017-07-12T15:03:34.912Z,49.39
2017-07-12T15:04:44.526Z,49.19
2017-07-12T15:05:53.183Z,49.1
2017-07-12T15:07:01.841Z,49.29
2017-07-12T15:08:11.152Z,49
2017-07-12T15:09:20.890Z,49.1
2017-07-12T15:10:30.480Z,49.1
2017-07-12T15:11:39.429Z,49
2017-07-12T15:12:48.706Z,49.1
2017-07-12T15:13:57.671Z,49.1
2017-07-12T15:15:06.935Z,49.12
2017-07-12T15:16:15.897Z,49.19
2017-07-12T15:17:24.620Z,49.1
2017-07-12T15:18:33.901Z,49.1
2017-07-12T15:19:42.882Z,49.1
2017-07-12T15:20:52.623Z,49
2017-07-12T15:22:02.524Z,49.1
2017-07-12T15:23:11.169Z,49.1